createdAt,value
2023-04-17T00:02:00.585Z,72.10
2023-04-17T00:04:27.919Z,72.10
2023-04-17T00:06:54.946Z,72.10
2023-04-17T00:09:21.980Z,72.10
2023-04-17T00:11:48.943Z,72.10
2023-04-17T00:14:15.931Z,72.00
2023-04-17T00:16:42.912Z,72.10
2023-04-17T00:19:10.115Z,72.00
2023-04-17T00:21:40.369Z,72.10
2023-04-17T00:24:07.599Z,71.90
2023-04-17T00:26:35.020Z,71.90
2023-04-17T00:29:02.371Z,72.00
2023-04-17T00:31:31.894Z,72.20
2023-04-17T00:34:01.744Z,72.20
2023-04-17T00:36:31.848Z,72.30
2023-04-17T00:38:59.323Z,72.20
2023-04-17T00:41:26.426Z,72.10
2023-04-17T00:43:53.570Z,72.00
2023-04-17T00:46:20.924Z,72.00
2023-04-17T00:48:48.469Z,72.00
2023-04-17T00:51:16.064Z,72.10
2023-04-17T00:53:43.318Z,72.10
2023-04-17T00:56:10.838Z,72.00
2023-04-17T00:58:38.080Z,72.00
2023-04-17T01:01:06.354Z,72.10
2023-04-17T01:03:34.345Z,72.30
2023-04-17T01:06:02.145Z,72.10
2023-04-17T01:08:36.408Z,72.10
2023-04-17T01:11:05.346Z,72.10
2023-04-17T01:13:32.615Z,72.20
2023-04-17T01:15:59.714Z,72.20
2023-04-17T01:18:26.718Z,72.20
2023-04-17T01:20:54.161Z,72.20
2023-04-17T01:23:21.083Z,72.20
2023-04-17T01:25:48.392Z,72.20
2023-04-17T01:28:15.693Z,72.40
2023-04-17T01:30:42.793Z,72.30
2023-04-17T01:33:12.591Z,72.40
2023-04-17T01:35:40.970Z,72.30
2023-04-17T01:38:07.978Z,72.40
2023-04-17T01:40:35.347Z,72.30
2023-04-17T01:43:02.563Z,72.40
2023-04-17T01:45:29.545Z,72.40
2023-04-17T01:47:56.923Z,72.50
2023-04-17T01:50:24.417Z,72.50
2023-04-17T01:52:51.478Z,72.50
2023-04-17T01:55:18.813Z,72.40
2023-04-17T01:57:48.274Z,72.50
2023-04-17T02:00:17.037Z,72.50
2023-04-17T02:02:44.199Z,72.60
2023-04-17T02:05:11.471Z,72.60
2023-04-17T02:07:40.104Z,72.60
2023-04-17T02:10:08.087Z,72.50
2023-04-17T02:12:36.772Z,72.60
2023-04-17T02:15:04.120Z,72.50
2023-04-17T02:17:31.560Z,72.60
2023-04-17T02:19:59.885Z,72.60
2023-04-17T02:22:30.755Z,72.50
2023-04-17T02:24:58.780Z,72.50
2023-04-17T02:27:27.160Z,72.60
2023-04-17T02:29:54.344Z,72.60
2023-04-17T02:32:22.483Z,72.60
2023-04-17T02:34:49.881Z,72.60
2023-04-17T02:37:17.581Z,72.70
2023-04-17T02:39:44.535Z,72.70
2023-04-17T02:42:13.110Z,72.70
2023-04-17T02:44:41.595Z,72.80
2023-04-17T02:47:08.899Z,72.70
2023-04-17T02:49:36.020Z,72.80
2023-04-17T02:52:02.959Z,72.90
2023-04-17T02:54:30.076Z,72.80
2023-04-17T02:56:58.640Z,72.80
2023-04-17T02:59:29.020Z,72.80
2023-04-17T03:01:59.782Z,72.80
2023-04-17T03:04:28.501Z,72.80
2023-04-17T03:06:55.913Z,72.90
2023-04-17T03:09:24.225Z,72.80
2023-04-17T03:11:52.164Z,72.90
2023-04-17T03:14:19.305Z,72.90
2023-04-17T03:16:46.377Z,73.00
2023-04-17T03:19:13.582Z,73.20
2023-04-17T03:21:40.825Z,73.10
2023-04-17T03:24:08.067Z,73.10
2023-04-17T03:26:35.485Z,73.10
2023-04-17T03:29:08.209Z,73.30
2023-04-17T03:31:35.751Z,73.10
2023-04-17T03:34:03.733Z,73.10
2023-04-17T03:36:31.080Z,73.10
2023-04-17T03:38:58.223Z,73.10
2023-04-17T03:41:25.434Z,73.10
2023-04-17T03:43:52.906Z,73.10
2023-04-17T03:46:20.338Z,73.10
2023-04-17T03:48:51.398Z,73.40
2023-04-17T03:51:18.456Z,73.10
2023-04-17T03:53:46.347Z,73.20
2023-04-17T03:56:13.937Z,73.10
2023-04-17T03:58:43.643Z,73.10
2023-04-17T04:01:14.800Z,73.10
2023-04-17T04:03:59.667Z,72.90
2023-04-17T04:06:29.938Z,72.70
2023-04-17T04:08:59.166Z,72.70
2023-04-17T04:11:27.237Z,72.70
2023-04-17T04:13:54.918Z,72.60
2023-04-17T04:16:22.012Z,72.70
2023-04-17T04:18:50.488Z,72.70
2023-04-17T04:21:18.561Z,72.70
2023-04-17T04:23:45.667Z,72.70
2023-04-17T04:26:17.089Z,72.60
2023-04-17T04:28:50.124Z,72.70
2023-04-17T04:31:32.080Z,72.70
2023-04-17T04:34:02.420Z,72.60
2023-04-17T04:36:30.346Z,72.70
2023-04-17T04:39:20.706Z,72.70
2023-04-17T04:41:50.713Z,72.70
2023-04-17T04:44:20.370Z,72.70
2023-04-17T04:46:53.083Z,72.60
2023-04-17T04:49:20.600Z,72.60
2023-04-17T04:51:47.830Z,72.60
2023-04-17T04:54:14.941Z,72.60
2023-04-17T04:56:49.168Z,72.50
2023-04-17T04:59:16.268Z,72.60
2023-04-17T05:01:49.788Z,72.70
2023-04-17T05:04:20.890Z,72.80
2023-04-17T05:06:51.878Z,72.60
2023-04-17T05:09:19.045Z,73.50
2023-04-17T05:11:48.369Z,72.60
2023-04-17T05:14:15.940Z,72.80
2023-04-17T05:16:43.440Z,72.60
2023-04-17T05:19:11.526Z,72.60
2023-04-17T05:21:53.946Z,72.60
2023-04-17T05:24:22.771Z,72.60
2023-04-17T05:26:50.536Z,72.50
2023-04-17T05:29:18.120Z,72.70
2023-04-17T05:31:45.607Z,72.80
2023-04-17T05:34:30.237Z,72.80
2023-04-17T05:37:09.102Z,72.70
2023-04-17T05:39:36.378Z,72.50
2023-04-17T05:42:03.919Z,72.50
2023-04-17T05:44:32.233Z,72.50
2023-04-17T05:47:02.811Z,72.40
2023-04-17T05:49:31.136Z,72.20
2023-04-17T05:51:58.197Z,72.00
2023-04-17T05:54:25.402Z,71.90
2023-04-17T05:56:53.186Z,71.90
2023-04-17T05:59:21.200Z,71.90
2023-04-17T06:01:50.566Z,71.80
2023-04-17T06:04:21.223Z,71.80
2023-04-17T06:06:50.704Z,71.80
2023-04-17T06:09:18.580Z,71.90
2023-04-17T06:11:45.585Z,72.00
2023-04-17T06:14:12.880Z,72.00
2023-04-17T06:16:40.877Z,71.90
2023-04-17T06:19:09.231Z,72.00
2023-04-17T06:21:36.197Z,72.00
2023-04-17T06:24:03.291Z,72.10
2023-04-17T06:26:30.498Z,72.10
2023-04-17T06:28:57.846Z,72.20
2023-04-17T06:31:25.856Z,72.50
2023-04-17T06:33:53.583Z,72.40
2023-04-17T06:36:26.246Z,72.40
2023-04-17T06:38:56.726Z,72.30
2023-04-17T06:41:23.977Z,71.90
2023-04-17T06:43:54.714Z,71.70
2023-04-17T06:46:24.741Z,71.70
2023-04-17T06:48:52.869Z,71.60
2023-04-17T06:51:21.916Z,71.60
2023-04-17T06:53:49.768Z,71.70
2023-04-17T06:56:16.957Z,71.60
2023-04-17T06:58:46.622Z,71.70
2023-04-17T07:01:14.505Z,71.60
2023-04-17T07:03:43.097Z,71.30
2023-04-17T07:06:10.529Z,71.30
2023-04-17T07:08:37.551Z,71.30
2023-04-17T07:11:04.624Z,71.40
2023-04-17T07:13:34.814Z,71.40
2023-04-17T07:16:02.155Z,71.20
2023-04-17T07:18:31.992Z,70.90
2023-04-17T07:20:59.188Z,70.60
2023-04-17T07:23:26.168Z,70.40
2023-04-17T07:25:53.295Z,70.40
2023-04-17T07:28:20.658Z,70.50
2023-04-17T07:30:48.161Z,70.50
2023-04-17T07:33:17.981Z,70.70
2023-04-17T07:35:45.712Z,71.00
2023-04-17T07:38:12.791Z,71.30
2023-04-17T07:40:39.910Z,71.60
2023-04-17T07:43:08.028Z,71.60
2023-04-17T07:45:37.632Z,71.60
2023-04-17T07:48:06.352Z,71.20
2023-04-17T07:50:33.417Z,71.00
2023-04-17T07:53:01.094Z,70.60
2023-04-17T07:55:29.321Z,72.00
2023-04-17T07:58:01.772Z,71.80
2023-04-17T08:00:29.432Z,72.10
2023-04-17T08:02:56.790Z,71.60
2023-04-17T08:05:24.614Z,70.10
2023-04-17T08:07:51.803Z,69.20
2023-04-17T08:10:18.978Z,67.90
2023-04-17T08:12:46.028Z,67.50
2023-04-17T08:15:13.009Z,66.70
2023-04-17T08:17:41.443Z,66.30
2023-04-17T08:20:11.690Z,66.00
2023-04-17T08:22:40.690Z,65.90
2023-04-17T08:25:09.525Z,65.80
2023-04-17T08:27:41.022Z,66.20
2023-04-17T08:30:12.880Z,67.20
2023-04-17T08:32:43.101Z,66.50
2023-04-17T08:35:14.330Z,66.20
2023-04-17T08:37:42.953Z,64.30
2023-04-17T08:40:13.676Z,63.00
2023-04-17T08:42:42.323Z,62.60
2023-04-17T08:45:13.991Z,62.20
2023-04-17T08:47:43.397Z,62.60
2023-04-17T08:50:13.805Z,63.40
2023-04-17T08:52:44.870Z,61.70
2023-04-17T08:55:25.528Z,62.10
2023-04-17T08:57:56.354Z,61.90
2023-04-17T09:00:28.701Z,61.10
2023-04-17T09:02:57.341Z,60.40
2023-04-17T09:05:26.599Z,60.60
2023-04-17T09:08:14.619Z,60.40
2023-04-17T09:10:45.727Z,59.80
2023-04-17T09:13:18.715Z,60.00
2023-04-17T09:15:47.938Z,60.00
2023-04-17T09:18:28.120Z,58.90
2023-04-17T09:20:57.715Z,59.80
2023-04-17T09:23:24.789Z,59.40
2023-04-17T09:26:10.913Z,59.00
2023-04-17T09:28:41.607Z,57.90
2023-04-17T09:31:17.765Z,57.70
2023-04-17T09:34:01.873Z,59.00
2023-04-17T09:36:31.532Z,58.90
2023-04-17T09:39:05.131Z,58.70
2023-04-17T09:41:36.397Z,58.70
2023-04-17T09:44:06.458Z,58.00
2023-04-17T09:46:46.114Z,58.20
2023-04-17T09:49:18.995Z,57.90
2023-04-17T09:51:46.825Z,57.70
2023-04-17T09:54:20.225Z,57.90
2023-04-17T09:56:50.331Z,57.80
2023-04-17T09:59:19.809Z,57.80
2023-04-17T10:01:46.805Z,58.00
2023-04-17T10:04:14.203Z,58.90
2023-04-17T10:06:41.772Z,59.40
2023-04-17T10:09:09.341Z,59.50
2023-04-17T10:11:39.120Z,57.80
2023-04-17T10:14:32.822Z,58.20
2023-04-17T10:16:59.892Z,57.40
2023-04-17T10:19:38.638Z,57.30
2023-04-17T10:22:20.807Z,57.40
2023-04-17T10:25:14.240Z,57.90
2023-04-17T10:27:41.609Z,57.60
2023-04-17T10:30:10.588Z,58.00
2023-04-17T10:32:37.686Z,58.20
2023-04-17T10:35:20.601Z,58.40
2023-04-17T10:37:47.762Z,58.50
2023-04-17T10:40:22.496Z,58.80
2023-04-17T10:43:32.308Z,58.60
2023-04-17T10:46:08.482Z,58.60
2023-04-17T10:48:39.249Z,59.00
2023-04-17T10:51:22.395Z,59.00
2023-04-17T10:54:01.960Z,59.10
2023-04-17T10:56:35.169Z,59.80
2023-04-17T10:59:08.957Z,59.20
2023-04-17T11:01:48.227Z,59.40
2023-04-17T11:04:32.035Z,58.30
2023-04-17T11:06:59.182Z,58.10
2023-04-17T11:09:28.702Z,58.50
2023-04-17T11:11:59.350Z,58.50
2023-04-17T11:14:27.286Z,58.10
2023-04-17T11:16:56.145Z,58.30
2023-04-17T11:19:24.759Z,58.50
2023-04-17T11:22:01.392Z,58.90
2023-04-17T11:24:31.708Z,58.30
2023-04-17T11:27:00.244Z,58.20
2023-04-17T11:29:27.849Z,58.20
2023-04-17T11:32:00.528Z,57.70
2023-04-17T11:34:27.843Z,57.50
2023-04-17T11:36:57.958Z,57.40
2023-04-17T11:39:27.115Z,57.10
2023-04-17T11:41:54.583Z,57.30
2023-04-17T11:44:21.756Z,57.40
2023-04-17T11:46:56.613Z,57.50
2023-04-17T11:49:32.243Z,57.80
2023-04-17T11:52:08.099Z,57.90
2023-04-17T11:54:37.408Z,58.20
2023-04-17T11:57:13.307Z,58.40
2023-04-17T11:59:42.388Z,58.00
2023-04-17T12:02:11.130Z,58.10
2023-04-17T12:04:40.040Z,58.30
2023-04-17T12:07:08.340Z,58.50
2023-04-17T12:09:36.574Z,58.50
2023-04-17T12:12:08.103Z,58.50
2023-04-17T12:14:35.935Z,58.50
2023-04-17T12:17:03.949Z,58.80
2023-04-17T12:19:32.120Z,58.90
2023-04-17T12:21:59.660Z,58.40
2023-04-17T12:24:28.190Z,58.30
2023-04-17T12:27:02.074Z,58.10
2023-04-17T12:29:43.060Z,58.00
2023-04-17T12:32:11.853Z,58.00
2023-04-17T12:34:38.909Z,58.00
2023-04-17T12:37:05.967Z,57.70
2023-04-17T12:39:33.429Z,57.90
2023-04-17T12:42:00.405Z,57.70
2023-04-17T12:44:27.412Z,57.70
2023-04-17T12:46:54.617Z,57.90
2023-04-17T12:49:23.657Z,58.10
2023-04-17T12:51:51.546Z,58.10
2023-04-17T12:54:18.904Z,58.10
2023-04-17T12:56:47.495Z,58.30
2023-04-17T12:59:14.985Z,58.20
2023-04-17T13:01:42.715Z,58.40
2023-04-17T13:04:09.907Z,58.40
2023-04-17T13:06:36.998Z,58.30
2023-04-17T13:09:04.849Z,58.20
2023-04-17T13:14:23.971Z,58.80
2023-04-17T13:16:51.235Z,58.30
2023-04-17T13:19:18.337Z,58.10
2023-04-17T13:21:45.615Z,58.00
2023-04-17T13:24:17.249Z,58.10
2023-04-17T13:26:44.948Z,58.20
2023-04-17T13:29:12.126Z,58.00
2023-04-17T13:31:39.246Z,57.90
2023-04-17T13:34:06.849Z,58.30
2023-04-17T13:36:34.190Z,58.40
2023-04-17T13:39:01.225Z,58.30
2023-04-17T13:41:31.538Z,58.30
2023-04-17T13:43:58.557Z,58.50
2023-04-17T13:46:25.621Z,58.20
2023-04-17T13:48:52.697Z,58.30
2023-04-17T13:51:19.719Z,58.30
2023-04-17T13:53:46.745Z,58.30
2023-04-17T13:56:13.846Z,58.40
2023-04-17T13:58:41.790Z,58.50
2023-04-17T14:01:11.899Z,58.20
2023-04-17T14:03:41.744Z,58.40
2023-04-17T14:06:10.696Z,58.50
2023-04-17T14:08:42.896Z,58.70
2023-04-17T14:11:11.310Z,58.90
2023-04-17T14:13:38.541Z,59.00
2023-04-17T14:16:06.003Z,58.50
2023-04-17T14:18:33.887Z,58.30
2023-04-17T14:21:02.193Z,58.10
2023-04-17T14:23:29.725Z,57.90
2023-04-17T14:25:56.804Z,57.90
2023-04-17T14:28:27.006Z,58.00
2023-04-17T14:30:54.024Z,58.10
2023-04-17T14:33:22.173Z,58.20
2023-04-17T14:35:49.297Z,58.10
2023-04-17T14:38:16.528Z,58.10
2023-04-17T14:40:43.752Z,58.30
2023-04-17T14:43:11.051Z,58.20
2023-04-17T14:45:38.288Z,58.10
2023-04-17T14:48:05.822Z,58.20
2023-04-17T14:50:33.918Z,58.10
2023-04-17T14:53:01.285Z,58.30
2023-04-17T14:55:29.193Z,58.20
2023-04-17T14:57:56.333Z,58.30
2023-04-17T15:00:24.557Z,58.70
2023-04-17T15:02:52.065Z,58.90
2023-04-17T15:05:21.705Z,59.00
2023-04-17T15:07:50.744Z,59.10
2023-04-17T15:10:17.952Z,58.90
2023-04-17T15:12:44.960Z,59.10
2023-04-17T15:15:12.335Z,59.10
2023-04-17T15:17:39.375Z,59.10
2023-04-17T15:20:07.517Z,59.10
2023-04-17T15:22:34.759Z,59.20
2023-04-17T15:25:01.736Z,59.40
2023-04-17T15:27:28.690Z,59.20
2023-04-17T15:29:55.817Z,59.10
2023-04-17T15:32:22.937Z,59.40
2023-04-17T15:34:50.207Z,59.50
2023-04-17T15:37:17.161Z,59.50
2023-04-17T15:39:45.898Z,59.50
2023-04-17T15:42:15.971Z,59.50
2023-04-17T15:44:45.184Z,59.80
2023-04-17T15:47:12.369Z,60.10
2023-04-17T15:49:39.343Z,60.10
2023-04-17T15:52:07.128Z,60.00
2023-04-17T15:54:34.127Z,60.20
2023-04-17T15:57:01.125Z,60.20
2023-04-17T15:59:28.273Z,60.20
2023-04-17T16:01:55.492Z,60.30
2023-04-17T16:04:22.870Z,60.40
2023-04-17T16:06:54.219Z,60.60
2023-04-17T16:09:25.399Z,60.60
2023-04-17T16:11:54.002Z,60.70
2023-04-17T16:14:21.612Z,60.90
2023-04-17T16:16:48.545Z,60.70
2023-04-17T16:19:16.162Z,60.80
2023-04-17T16:21:45.758Z,61.00
2023-04-17T16:24:21.260Z,61.10
2023-04-17T16:27:00.404Z,61.10
2023-04-17T16:29:33.099Z,61.30
2023-04-17T16:32:04.869Z,61.20
2023-04-17T16:34:32.143Z,61.50
2023-04-17T16:37:03.595Z,61.50
2023-04-17T16:39:30.726Z,61.60
2023-04-17T16:41:57.847Z,61.60
2023-04-17T16:44:28.533Z,61.60
2023-04-17T16:47:12.594Z,61.70
2023-04-17T16:49:47.172Z,61.70
2023-04-17T16:52:14.260Z,61.80
2023-04-17T16:54:43.486Z,61.70
2023-04-17T16:57:11.630Z,61.90
2023-04-17T16:59:41.271Z,61.80
2023-04-17T17:02:08.472Z,61.90
2023-04-17T17:04:37.790Z,62.10
2023-04-17T17:07:06.191Z,62.10
2023-04-17T17:09:33.343Z,62.20
2023-04-17T17:12:00.800Z,62.40
2023-04-17T17:14:27.815Z,62.40
2023-04-17T17:16:54.992Z,62.50
2023-04-17T17:19:25.330Z,62.40
2023-04-17T17:21:55.189Z,62.60
2023-04-17T17:24:22.192Z,62.40
2023-04-17T17:26:49.260Z,62.60
2023-04-17T17:29:16.977Z,62.50
2023-04-17T17:31:44.067Z,62.60
2023-04-17T17:34:25.471Z,62.60
2023-04-17T17:36:54.097Z,62.80
2023-04-17T17:39:22.183Z,62.90
2023-04-17T17:41:50.708Z,62.90
2023-04-17T17:44:17.936Z,62.90
2023-04-17T17:46:46.357Z,63.00
2023-04-17T17:49:17.697Z,63.10
2023-04-17T17:51:44.835Z,63.20
2023-04-17T17:54:21.357Z,63.30
2023-04-17T17:56:49.239Z,63.30
2023-04-17T17:59:18.792Z,63.30
2023-04-17T18:01:46.765Z,63.50
2023-04-17T18:04:14.272Z,63.50
2023-04-17T18:06:41.777Z,63.50
2023-04-17T18:09:08.778Z,63.50
2023-04-17T18:11:36.987Z,63.50
2023-04-17T18:14:03.969Z,63.50
2023-04-17T18:16:34.074Z,63.50
2023-04-17T18:19:03.574Z,63.50
2023-04-17T18:21:34.088Z,63.70
2023-04-17T18:24:01.930Z,63.50
2023-04-17T18:26:29.050Z,63.70
2023-04-17T18:28:56.140Z,63.70
2023-04-17T18:31:26.029Z,63.80
2023-04-17T18:33:53.354Z,64.00
2023-04-17T18:36:22.743Z,64.00
2023-04-17T18:38:49.800Z,64.20
2023-04-17T18:41:17.359Z,64.30
2023-04-17T18:43:44.311Z,64.30
2023-04-17T18:46:11.356Z,64.40
2023-04-17T18:48:38.509Z,64.30
2023-04-17T18:51:15.038Z,64.30
2023-04-17T18:53:42.221Z,64.60
2023-04-17T18:56:10.867Z,64.70
2023-04-17T18:58:40.404Z,64.70
2023-04-17T19:01:10.394Z,64.80
2023-04-17T19:03:38.337Z,65.80
2023-04-17T19:06:06.805Z,65.00
2023-04-17T19:08:34.174Z,65.30
2023-04-17T19:11:01.736Z,65.20
2023-04-17T19:13:28.942Z,65.10
2023-04-17T19:15:56.367Z,65.20
2023-04-17T19:18:24.012Z,65.30
2023-04-17T19:20:51.082Z,65.50
2023-04-17T19:23:18.060Z,65.60
2023-04-17T19:25:45.082Z,65.70
2023-04-17T19:28:13.412Z,65.70
2023-04-17T19:30:40.411Z,65.70
2023-04-17T19:33:07.681Z,65.90
2023-04-17T19:35:34.705Z,66.00
2023-04-17T19:38:02.078Z,66.00
2023-04-17T19:40:29.316Z,65.90
2023-04-17T19:43:01.090Z,66.00
2023-04-17T19:45:28.547Z,66.10
2023-04-17T19:47:57.195Z,66.50
2023-04-17T19:50:27.350Z,66.60
2023-04-17T19:52:55.667Z,66.80
2023-04-17T19:55:22.707Z,66.90
2023-04-17T19:57:51.073Z,67.10
2023-04-17T20:00:18.294Z,67.10
2023-04-17T20:02:45.642Z,67.20
2023-04-17T20:05:13.839Z,67.40
2023-04-17T20:07:40.801Z,67.60
2023-04-17T20:10:08.218Z,67.70
2023-04-17T20:12:35.613Z,67.60
2023-04-17T20:15:02.753Z,67.70
2023-04-17T20:17:29.911Z,67.80
2023-04-17T20:19:57.254Z,67.90
2023-04-17T20:22:26.320Z,68.00
2023-04-17T20:24:53.729Z,68.00
2023-04-17T20:27:20.753Z,68.10
2023-04-17T20:29:47.744Z,68.20
2023-04-17T20:32:15.214Z,68.20
2023-04-17T20:34:42.218Z,68.30
2023-04-17T20:37:09.638Z,68.40
2023-04-17T20:39:36.767Z,68.50
2023-04-17T20:42:06.334Z,68.50
2023-04-17T20:44:34.499Z,68.40
2023-04-17T20:47:04.047Z,68.40
2023-04-17T20:49:33.330Z,68.60
2023-04-17T20:52:02.200Z,68.70
2023-04-17T20:54:29.524Z,68.70
2023-04-17T20:56:57.121Z,68.70
2023-04-17T20:59:24.171Z,68.90
2023-04-17T21:01:52.893Z,69.20
2023-04-17T21:04:20.165Z,69.00
2023-04-17T21:06:47.401Z,69.00
2023-04-17T21:09:16.493Z,69.10
2023-04-17T21:11:43.832Z,69.20
2023-04-17T21:14:13.818Z,69.20
2023-04-17T21:16:44.856Z,69.20
2023-04-17T21:19:12.404Z,69.40
2023-04-17T21:21:39.374Z,69.40
2023-04-17T21:24:06.572Z,69.30
2023-04-17T21:26:33.566Z,69.50
2023-04-17T21:29:00.602Z,69.50
2023-04-17T21:31:27.631Z,69.60
2023-04-17T21:33:54.674Z,69.60
2023-04-17T21:36:22.595Z,69.60
2023-04-17T21:38:49.586Z,69.50
2023-04-17T21:41:17.813Z,69.60
2023-04-17T21:43:44.861Z,69.70
2023-04-17T21:46:12.122Z,69.60
2023-04-17T21:48:39.971Z,69.70
2023-04-17T21:51:07.227Z,69.60
2023-04-17T21:53:35.907Z,69.60
2023-04-17T21:56:05.607Z,69.60
2023-04-17T21:58:33.836Z,69.70
2023-04-17T22:01:00.982Z,69.80
2023-04-17T22:03:28.217Z,69.90
2023-04-17T22:05:56.881Z,69.80
2023-04-17T22:08:24.486Z,69.80
2023-04-17T22:10:52.860Z,69.90
2023-04-17T22:13:19.831Z,70.00
2023-04-17T22:15:48.346Z,70.10
2023-04-17T22:18:15.724Z,70.10
2023-04-17T22:20:42.838Z,70.10
2023-04-17T22:23:10.986Z,70.10
2023-04-17T22:25:38.053Z,70.00
2023-04-17T22:28:05.342Z,70.00
2023-04-17T22:30:33.826Z,70.00
2023-04-17T22:33:00.878Z,70.00
2023-04-17T22:35:27.911Z,70.20
2023-04-17T22:37:54.866Z,70.20
2023-04-17T22:40:27.620Z,70.10
2023-04-17T22:42:54.640Z,70.10
2023-04-17T22:45:21.745Z,70.30
2023-04-17T22:47:48.769Z,70.30
2023-04-17T22:50:15.884Z,70.20
2023-04-17T22:52:43.999Z,70.10
2023-04-17T22:55:11.413Z,70.30
2023-04-17T22:57:38.533Z,70.20
2023-04-17T23:00:08.053Z,70.30
2023-04-17T23:02:35.508Z,70.20
2023-04-17T23:05:02.777Z,70.00
2023-04-17T23:07:29.895Z,70.10
2023-04-17T23:09:56.906Z,70.20
2023-04-17T23:12:24.157Z,70.10
2023-04-17T23:14:51.084Z,70.30
2023-04-17T23:17:18.055Z,70.20
2023-04-17T23:19:48.625Z,70.00
2023-04-17T23:22:15.624Z,70.00
2023-04-17T23:24:42.648Z,69.90
2023-04-17T23:27:09.622Z,69.80
2023-04-17T23:29:36.564Z,70.00
2023-04-17T23:32:04.609Z,70.10
2023-04-17T23:34:31.558Z,70.10
2023-04-17T23:37:00.322Z,69.90
2023-04-17T23:39:27.363Z,70.10
2023-04-17T23:41:54.844Z,70.30
2023-04-17T23:44:21.881Z,70.10
2023-04-17T23:46:48.985Z,70.10
2023-04-17T23:49:16.094Z,70.10
2023-04-17T23:51:45.376Z,70.10
2023-04-17T23:54:12.573Z,69.90
2023-04-17T23:56:43.404Z,70.00
2023-04-17T23:59:10.473Z,70.10
